sensor_id;sensor_type;location;lat;lon;timestamp;P1;P2;P0
40569;PMS5003;26270;34.428;-119.710;2022-08-20T00:01:01;7;7;
40569;PMS5003;26270;34.428;-119.710;2022-08-20T00:03:33;8;6;
40569;PMS5003;26270;34.428;-119.710;2022-08-20T00:06:04;9;6;
40569;PMS5003;26270;34.428;-119.710;2022-08-20T00:08:34;7;6;
40569;PMS5003;26270;34.428;-119.710;2022-08-20T00:11:04;8;7;
40569;PMS5003;26270;34.428;-119.710;2022-08-20T00:13:39;4;4;
40569;PMS5003;26270;34.428;-119.710;2022-08-20T00:16:12;5;5;
40569;PMS5003;26270;34.428;-119.710;2022-08-20T00:18:42;7;7;
40569;PMS5003;26270;34.428;-119.710;2022-08-20T00:21:12;7;6;
40569;PMS5003;26270;34.428;-119.710;2022-08-20T00:23:44;17;15;
40569;PMS5003;26270;34.428;-119.710;2022-08-20T00:26:14;22;21;
40569;PMS5003;26270;34.428;-119.710;2022-08-20T00:28:44;18;16;
40569;PMS5003;26270;34.428;-119.710;2022-08-20T00:31:14;17;16;
40569;PMS5003;26270;34.428;-119.710;2022-08-20T00:33:45;6;5;
40569;PMS5003;26270;34.428;-119.710;2022-08-20T00:36:14;7;6;
40569;PMS5003;26270;34.428;-119.710;2022-08-20T00:38:44;6;6;
40569;PMS5003;26270;34.428;-119.710;2022-08-20T00:41:14;8;7;
40569;PMS5003;26270;34.428;-119.710;2022-08-20T00:43:46;6;5;
40569;PMS5003;26270;34.428;-119.710;2022-08-20T00:46:18;7;6;
40569;PMS5003;26270;34.428;-119.710;2022-08-20T00:48:49;8;5;
40569;PMS5003;26270;34.428;-119.710;2022-08-20T00:51:24;6;5;
40569;PMS5003;26270;34.428;-119.710;2022-08-20T00:53:58;9;7;
40569;PMS5003;26270;34.428;-119.710;2022-08-20T00:56:31;8;7;
40569;PMS5003;26270;34.428;-119.710;2022-08-20T00:59:01;12;9;
40569;PMS5003;26270;34.428;-119.710;2022-08-20T01:01:31;8;8;
40569;PMS5003;26270;34.428;-119.710;2022-08-20T01:03:59;9;6;
40569;PMS5003;26270;34.428;-119.710;2022-08-20T01:06:28;6;6;
40569;PMS5003;26270;34.428;-119.710;2022-08-20T01:08:56;6;6;
40569;PMS5003;26270;34.428;-119.710;2022-08-20T01:11:25;5;4;
40569;PMS5003;26270;34.428;-119.710;2022-08-20T01:13:53;7;6;
40569;PMS5003;26270;34.428;-119.710;2022-08-20T01:16:23;9;7;
40569;PMS5003;26270;34.428;-119.710;2022-08-20T01:18:56;9;7;
40569;PMS5003;26270;34.428;-119.710;2022-08-20T01:21:26;6;6;
40569;PMS5003;26270;34.428;-119.710;2022-08-20T01:23:58;5;5;
40569;PMS5003;26270;34.428;-119.710;2022-08-20T01:26:33;7;5;
40569;PMS5003;26270;34.428;-119.710;2022-08-20T01:29:05;8;7;
40569;PMS5003;26270;34.428;-119.710;2022-08-20T01:31:36;8;6;
40569;PMS5003;26270;34.428;-119.710;2022-08-20T01:34:06;5;5;
40569;PMS5003;26270;34.428;-119.710;2022-08-20T01:36:38;7;6;
40569;PMS5003;26270;34.428;-119.710;2022-08-20T01:39:10;6;5;
40569;PMS5003;26270;34.428;-119.710;2022-08-20T01:41:44;8;6;
40569;PMS5003;26270;34.428;-119.710;2022-08-20T01:44:20;7;6;
40569;PMS5003;26270;34.428;-119.710;2022-08-20T01:46:50;9;6;
40569;PMS5003;26270;34.428;-119.710;2022-08-20T01:49:23;8;8;
40569;PMS5003;26270;34.428;-119.710;2022-08-20T01:51:55;6;6;
40569;PMS5003;26270;34.428;-119.710;2022-08-20T01:54:27;8;7;
40569;PMS5003;26270;34.428;-119.710;2022-08-20T01:56:59;8;6;
40569;PMS5003;26270;34.428;-119.710;2022-08-20T01:59:30;7;5;
40569;PMS5003;26270;34.428;-119.710;2022-08-20T02:01:58;7;6;
40569;PMS5003;26270;34.428;-119.710;2022-08-20T02:04:26;8;7;
40569;PMS5003;26270;34.428;-119.710;2022-08-20T02:06:56;7;5;
40569;PMS5003;26270;34.428;-119.710;2022-08-20T02:09:26;8;6;
40569;PMS5003;26270;34.428;-119.710;2022-08-20T02:11:56;8;7;
40569;PMS5003;26270;34.428;-119.710;2022-08-20T02:14:24;9;8;
40569;PMS5003;26270;34.428;-119.710;2022-08-20T02:16:54;11;8;
40569;PMS5003;26270;34.428;-119.710;2022-08-20T02:19:26;15;14;
40569;PMS5003;26270;34.428;-119.710;2022-08-20T02:21:59;21;16;
40569;PMS5003;26270;34.428;-119.710;2022-08-20T02:24:30;25;23;
40569;PMS5003;26270;34.428;-119.710;2022-08-20T02:26:58;12;9;
40569;PMS5003;26270;34.428;-119.710;2022-08-20T02:29:27;9;7;
40569;PMS5003;26270;34.428;-119.710;2022-08-20T02:31:55;12;8;
40569;PMS5003;26270;34.428;-119.710;2022-08-20T02:34:23;9;7;
40569;PMS5003;26270;34.428;-119.710;2022-08-20T02:36:51;10;8;
40569;PMS5003;26270;34.428;-119.710;2022-08-20T02:39:20;9;8;
40569;PMS5003;26270;34.428;-119.710;2022-08-20T02:41:48;7;6;
40569;PMS5003;26270;34.428;-119.710;2022-08-20T02:44:17;10;7;
40569;PMS5003;26270;34.428;-119.710;2022-08-20T02:46:45;6;6;
40569;PMS5003;26270;34.428;-119.710;2022-08-20T02:49:15;7;6;
40569;PMS5003;26270;34.428;-119.710;2022-08-20T02:51:44;8;6;
40569;PMS5003;26270;34.428;-119.710;2022-08-20T02:54:13;9;8;
40569;PMS5003;26270;34.428;-119.710;2022-08-20T02:56:41;6;6;
40569;PMS5003;26270;34.428;-119.710;2022-08-20T02:59:10;9;9;
40569;PMS5003;26270;34.428;-119.710;2022-08-20T03:01:38;8;7;
40569;PMS5003;26270;34.428;-119.710;2022-08-20T03:04:07;9;6;
40569;PMS5003;26270;34.428;-119.710;2022-08-20T03:06:35;8;8;
40569;PMS5003;26270;34.428;-119.710;2022-08-20T03:09:03;10;8;
40569;PMS5003;26270;34.428;-119.710;2022-08-20T03:11:31;9;7;
40569;PMS5003;26270;34.428;-119.710;2022-08-20T03:14:00;10;9;
40569;PMS5003;26270;34.428;-119.710;2022-08-20T03:16:28;10;7;
40569;PMS5003;26270;34.428;-119.710;2022-08-20T03:18:57;9;8;
40569;PMS5003;26270;34.428;-119.710;2022-08-20T03:21:25;15;13;
40569;PMS5003;26270;34.428;-119.710;2022-08-20T03:23:53;16;13;
40569;PMS5003;26270;34.428;-119.710;2022-08-20T03:26:22;13;12;
40569;PMS5003;26270;34.428;-119.710;2022-08-20T03:28:50;16;10;
40569;PMS5003;26270;34.428;-119.710;2022-08-20T03:31:18;15;13;
40569;PMS5003;26270;34.428;-119.710;2022-08-20T03:33:46;13;11;
40569;PMS5003;26270;34.428;-119.710;2022-08-20T03:36:15;25;12;
40569;PMS5003;26270;34.428;-119.710;2022-08-20T03:38:43;18;16;
40569;PMS5003;26270;34.428;-119.710;2022-08-20T03:41:11;28;25;
40569;PMS5003;26270;34.428;-119.710;2022-08-20T03:43:39;36;35;
40569;PMS5003;26270;34.428;-119.710;2022-08-20T03:46:08;47;45;
40569;PMS5003;26270;34.428;-119.710;2022-08-20T03:48:36;28;22;
40569;PMS5003;26270;34.428;-119.710;2022-08-20T03:51:05;41;41;
40569;PMS5003;26270;34.428;-119.710;2022-08-20T03:53:33;48;46;
40569;PMS5003;26270;34.428;-119.710;2022-08-20T03:56:03;42;39;
40569;PMS5003;26270;34.428;-119.710;2022-08-20T03:58:33;23;23;
40569;PMS5003;26270;34.428;-119.710;2022-08-20T04:03:19;30;29;
40569;PMS5003;26270;34.428;-119.710;2022-08-20T04:05:48;16;13;
40569;PMS5003;26270;34.428;-119.710;2022-08-20T04:08:18;62;58;
40569;PMS5003;26270;34.428;-119.710;2022-08-20T04:10:53;43;41;
40569;PMS5003;26270;34.428;-119.710;2022-08-20T04:13:23;43;43;
40569;PMS5003;26270;34.428;-119.710;2022-08-20T04:15:53;55;53;
40569;PMS5003;26270;34.428;-119.710;2022-08-20T04:18:22;29;26;
40569;PMS5003;26270;34.428;-119.710;2022-08-20T04:20:51;56;52;
40569;PMS5003;26270;34.428;-119.710;2022-08-20T04:23:20;32;32;
40569;PMS5003;26270;34.428;-119.710;2022-08-20T04:25:48;55;55;
40569;PMS5003;26270;34.428;-119.710;2022-08-20T04:28:20;36;32;
40569;PMS5003;26270;34.428;-119.710;2022-08-20T04:30:48;27;27;
40569;PMS5003;26270;34.428;-119.710;2022-08-20T04:33:16;41;39;
40569;PMS5003;26270;34.428;-119.710;2022-08-20T04:35:44;62;59;
40569;PMS5003;26270;34.428;-119.710;2022-08-20T04:38:13;45;41;
40569;PMS5003;26270;34.428;-119.710;2022-08-20T04:40:43;38;37;
40569;PMS5003;26270;34.428;-119.710;2022-08-20T04:43:11;33;32;
40569;PMS5003;26270;34.428;-119.710;2022-08-20T04:45:40;26;23;
40569;PMS5003;26270;34.428;-119.710;2022-08-20T04:48:09;21;17;
40569;PMS5003;26270;34.428;-119.710;2022-08-20T04:50:38;34;32;
40569;PMS5003;26270;34.428;-119.710;2022-08-20T04:53:09;35;34;
40569;PMS5003;26270;34.428;-119.710;2022-08-20T04:55:40;40;39;
40569;PMS5003;26270;34.428;-119.710;2022-08-20T04:58:12;32;29;
40569;PMS5003;26270;34.428;-119.710;2022-08-20T05:00:44;51;49;
40569;PMS5003;26270;34.428;-119.710;2022-08-20T05:03:14;60;54;
40569;PMS5003;26270;34.428;-119.710;2022-08-20T05:05:44;74;70;
40569;PMS5003;26270;34.428;-119.710;2022-08-20T05:08:14;35;31;
40569;PMS5003;26270;34.428;-119.710;2022-08-20T05:10:43;37;33;
40569;PMS5003;26270;34.428;-119.710;2022-08-20T05:13:12;37;37;
40569;PMS5003;26270;34.428;-119.710;2022-08-20T05:15:40;23;17;
40569;PMS5003;26270;34.428;-119.710;2022-08-20T05:18:08;17;12;
40569;PMS5003;26270;34.428;-119.710;2022-08-20T05:20:38;21;13;
40569;PMS5003;26270;34.428;-119.710;2022-08-20T05:23:09;35;35;
40569;PMS5003;26270;34.428;-119.710;2022-08-20T05:25:39;24;19;
40569;PMS5003;26270;34.428;-119.710;2022-08-20T05:28:09;24;18;
40569;PMS5003;26270;34.428;-119.710;2022-08-20T05:30:43;34;25;
40569;PMS5003;26270;34.428;-119.710;2022-08-20T05:33:13;76;71;
40569;PMS5003;26270;34.428;-119.710;2022-08-20T05:35:42;63;62;
40569;PMS5003;26270;34.428;-119.710;2022-08-20T05:38:11;52;47;
40569;PMS5003;26270;34.428;-119.710;2022-08-20T05:40:41;53;50;
40569;PMS5003;26270;34.428;-119.710;2022-08-20T05:43:09;37;35;
40569;PMS5003;26270;34.428;-119.710;2022-08-20T05:45:39;17;11;
40569;PMS5003;26270;34.428;-119.710;2022-08-20T05:48:10;20;13;
40569;PMS5003;26270;34.428;-119.710;2022-08-20T05:50:40;17;13;
40569;PMS5003;26270;34.428;-119.710;2022-08-20T05:53:11;20;15;
40569;PMS5003;26270;34.428;-119.710;2022-08-20T05:55:39;47;46;
40569;PMS5003;26270;34.428;-119.710;2022-08-20T05:58:13;19;12;
40569;PMS5003;26270;34.428;-119.710;2022-08-20T06:00:42;26;21;
40569;PMS5003;26270;34.428;-119.710;2022-08-20T06:03:11;39;36;
40569;PMS5003;26270;34.428;-119.710;2022-08-20T06:05:39;23;18;
40569;PMS5003;26270;34.428;-119.710;2022-08-20T06:08:08;29;22;
40569;PMS5003;26270;34.428;-119.710;2022-08-20T06:10:39;28;24;
40569;PMS5003;26270;34.428;-119.710;2022-08-20T06:13:07;25;19;
40569;PMS5003;26270;34.428;-119.710;2022-08-20T06:15:36;32;23;
40569;PMS5003;26270;34.428;-119.710;2022-08-20T06:18:05;20;15;
40569;PMS5003;26270;34.428;-119.710;2022-08-20T06:20:35;32;25;
40569;PMS5003;26270;34.428;-119.710;2022-08-20T06:23:03;17;13;
40569;PMS5003;26270;34.428;-119.710;2022-08-20T06:25:32;32;25;
40569;PMS5003;26270;34.428;-119.710;2022-08-20T06:28:00;36;33;
40569;PMS5003;26270;34.428;-119.710;2022-08-20T06:30:30;35;34;
40569;PMS5003;26270;34.428;-119.710;2022-08-20T06:32:58;25;20;
40569;PMS5003;26270;34.428;-119.710;2022-08-20T06:35:26;23;16;
40569;PMS5003;26270;34.428;-119.710;2022-08-20T06:37:54;21;14;
40569;PMS5003;26270;34.428;-119.710;2022-08-20T06:40:24;27;26;
40569;PMS5003;26270;34.428;-119.710;2022-08-20T06:42:53;19;11;
40569;PMS5003;26270;34.428;-119.710;2022-08-20T06:45:24;31;29;
40569;PMS5003;26270;34.428;-119.710;2022-08-20T06:47:54;26;18;
40569;PMS5003;26270;34.428;-119.710;2022-08-20T06:50:24;25;18;
40569;PMS5003;26270;34.428;-119.710;2022-08-20T06:52:53;18;13;
40569;PMS5003;26270;34.428;-119.710;2022-08-20T06:55:22;7;7;
40569;PMS5003;26270;34.428;-119.710;2022-08-20T06:57:57;9;7;
40569;PMS5003;26270;34.428;-119.710;2022-08-20T07:00:27;11;7;
40569;PMS5003;26270;34.428;-119.710;2022-08-20T07:02:56;10;8;
40569;PMS5003;26270;34.428;-119.710;2022-08-20T07:05:24;9;8;
40569;PMS5003;26270;34.428;-119.710;2022-08-20T07:07:52;12;10;
40569;PMS5003;26270;34.428;-119.710;2022-08-20T07:10:21;11;8;
40569;PMS5003;26270;34.428;-119.710;2022-08-20T07:12:50;10;9;
40569;PMS5003;26270;34.428;-119.710;2022-08-20T07:15:19;8;8;
40569;PMS5003;26270;34.428;-119.710;2022-08-20T07:17:50;9;9;
40569;PMS5003;26270;34.428;-119.710;2022-08-20T07:20:20;12;10;
40569;PMS5003;26270;34.428;-119.710;2022-08-20T07:22:49;13;9;
40569;PMS5003;26270;34.428;-119.710;2022-08-20T07:25:18;9;9;
40569;PMS5003;26270;34.428;-119.710;2022-08-20T07:27:47;15;11;
40569;PMS5003;26270;34.428;-119.710;2022-08-20T07:30:17;16;12;
40569;PMS5003;26270;34.428;-119.710;2022-08-20T07:32:47;13;10;
40569;PMS5003;26270;34.428;-119.710;2022-08-20T07:35:16;13;9;
40569;PMS5003;26270;34.428;-119.710;2022-08-20T07:37:46;11;9;
40569;PMS5003;26270;34.428;-119.710;2022-08-20T07:40:17;9;8;
40569;PMS5003;26270;34.428;-119.710;2022-08-20T07:42:47;13;10;
40569;PMS5003;26270;34.428;-119.710;2022-08-20T07:45:15;13;9;
40569;PMS5003;26270;34.428;-119.710;2022-08-20T07:47:44;8;8;
40569;PMS5003;26270;34.428;-119.710;2022-08-20T07:50:14;15;9;
40569;PMS5003;26270;34.428;-119.710;2022-08-20T07:52:45;11;9;
40569;PMS5003;26270;34.428;-119.710;2022-08-20T07:55:14;16;15;
40569;PMS5003;26270;34.428;-119.710;2022-08-20T07:57:43;17;12;
40569;PMS5003;26270;34.428;-119.710;2022-08-20T08:00:14;14;11;
40569;PMS5003;26270;34.428;-119.710;2022-08-20T08:02:44;11;8;
40569;PMS5003;26270;34.428;-119.710;2022-08-20T08:05:12;8;8;
40569;PMS5003;26270;34.428;-119.710;2022-08-20T08:07:40;14;10;
40569;PMS5003;26270;34.428;-119.710;2022-08-20T08:10:09;9;8;
40569;PMS5003;26270;34.428;-119.710;2022-08-20T08:12:44;15;12;
40569;PMS5003;26270;34.428;-119.710;2022-08-20T08:15:16;10;10;
40569;PMS5003;26270;34.428;-119.710;2022-08-20T08:17:48;12;10;
40569;PMS5003;26270;34.428;-119.710;2022-08-20T08:20:18;10;10;
40569;PMS5003;26270;34.428;-119.710;2022-08-20T08:22:46;16;9;
40569;PMS5003;26270;34.428;-119.710;2022-08-20T08:25:16;14;9;
40569;PMS5003;26270;34.428;-119.710;2022-08-20T08:27:44;12;10;
40569;PMS5003;26270;34.428;-119.710;2022-08-20T08:30:13;9;8;
40569;PMS5003;26270;34.428;-119.710;2022-08-20T08:32:42;12;8;
40569;PMS5003;26270;34.428;-119.710;2022-08-20T08:35:10;14;9;
40569;PMS5003;26270;34.428;-119.710;2022-08-20T08:37:38;13;8;
40569;PMS5003;26270;34.428;-119.710;2022-08-20T08:40:07;9;9;
40569;PMS5003;26270;34.428;-119.710;2022-08-20T08:42:37;10;9;
40569;PMS5003;26270;34.428;-119.710;2022-08-20T08:45:09;14;9;
40569;PMS5003;26270;34.428;-119.710;2022-08-20T08:47:40;15;13;
40569;PMS5003;26270;34.428;-119.710;2022-08-20T08:50:14;13;11;
40569;PMS5003;26270;34.428;-119.710;2022-08-20T08:52:47;18;11;
40569;PMS5003;26270;34.428;-119.710;2022-08-20T08:55:19;12;9;
40569;PMS5003;26270;34.428;-119.710;2022-08-20T08:57:49;11;10;
40569;PMS5003;26270;34.428;-119.710;2022-08-20T09:00:22;13;11;
40569;PMS5003;26270;34.428;-119.710;2022-08-20T09:02:53;11;9;
40569;PMS5003;26270;34.428;-119.710;2022-08-20T09:05:27;13;11;
40569;PMS5003;26270;34.428;-119.710;2022-08-20T09:08:00;14;12;
40569;PMS5003;26270;34.428;-119.710;2022-08-20T09:10:30;15;10;
40569;PMS5003;26270;34.428;-119.710;2022-08-20T09:12:58;13;9;
40569;PMS5003;26270;34.428;-119.710;2022-08-20T09:15:26;10;9;
40569;PMS5003;26270;34.428;-119.710;2022-08-20T09:17:53;15;11;
40569;PMS5003;26270;34.428;-119.710;2022-08-20T09:20:22;14;11;
40569;PMS5003;26270;34.428;-119.710;2022-08-20T09:22:50;13;11;
40569;PMS5003;26270;34.428;-119.710;2022-08-20T09:25:19;15;12;
40569;PMS5003;26270;34.428;-119.710;2022-08-20T09:27:48;20;12;
40569;PMS5003;26270;34.428;-119.710;2022-08-20T09:30:16;11;9;
40569;PMS5003;26270;34.428;-119.710;2022-08-20T09:32:44;9;9;
40569;PMS5003;26270;34.428;-119.710;2022-08-20T09:35:12;15;13;
40569;PMS5003;26270;34.428;-119.710;2022-08-20T09:37:41;11;9;
40569;PMS5003;26270;34.428;-119.710;2022-08-20T09:40:09;9;7;
40569;PMS5003;26270;34.428;-119.710;2022-08-20T09:42:38;9;8;
40569;PMS5003;26270;34.428;-119.710;2022-08-20T09:45:07;12;11;
40569;PMS5003;26270;34.428;-119.710;2022-08-20T09:47:36;13;8;
40569;PMS5003;26270;34.428;-119.710;2022-08-20T09:50:05;9;8;
40569;PMS5003;26270;34.428;-119.710;2022-08-20T09:52:35;17;13;
40569;PMS5003;26270;34.428;-119.710;2022-08-20T09:55:11;11;8;
40569;PMS5003;26270;34.428;-119.710;2022-08-20T09:57:46;12;10;
40569;PMS5003;26270;34.428;-119.710;2022-08-20T10:00:16;11;9;
40569;PMS5003;26270;34.428;-119.710;2022-08-20T10:02:46;10;8;
40569;PMS5003;26270;34.428;-119.710;2022-08-20T10:05:15;10;8;
40569;PMS5003;26270;34.428;-119.710;2022-08-20T10:07:44;10;9;
40569;PMS5003;26270;34.428;-119.710;2022-08-20T10:10:13;10;8;
40569;PMS5003;26270;34.428;-119.710;2022-08-20T10:12:41;17;10;
40569;PMS5003;26270;34.428;-119.710;2022-08-20T10:15:10;12;9;
40569;PMS5003;26270;34.428;-119.710;2022-08-20T10:17:38;13;9;
40569;PMS5003;26270;34.428;-119.710;2022-08-20T10:20:09;8;8;
40569;PMS5003;26270;34.428;-119.710;2022-08-20T10:22:39;11;9;
40569;PMS5003;26270;34.428;-119.710;2022-08-20T10:25:08;12;9;
40569;PMS5003;26270;34.428;-119.710;2022-08-20T10:27:37;13;10;
40569;PMS5003;26270;34.428;-119.710;2022-08-20T10:30:06;12;8;
40569;PMS5003;26270;34.428;-119.710;2022-08-20T10:32:35;14;8;
40569;PMS5003;26270;34.428;-119.710;2022-08-20T10:35:04;10;8;
40569;PMS5003;26270;34.428;-119.710;2022-08-20T10:37:32;9;8;
40569;PMS5003;26270;34.428;-119.710;2022-08-20T10:40:00;14;10;
40569;PMS5003;26270;34.428;-119.710;2022-08-20T10:42:28;12;10;
40569;PMS5003;26270;34.428;-119.710;2022-08-20T10:44:57;10;10;
40569;PMS5003;26270;34.428;-119.710;2022-08-20T10:47:27;17;10;
40569;PMS5003;26270;34.428;-119.710;2022-08-20T10:49:57;15;13;
40569;PMS5003;26270;34.428;-119.710;2022-08-20T10:52:27;13;11;
40569;PMS5003;26270;34.428;-119.710;2022-08-20T10:54:55;14;12;
40569;PMS5003;26270;34.428;-119.710;2022-08-20T10:57:25;15;10;
40569;PMS5003;26270;34.428;-119.710;2022-08-20T10:59:55;15;12;
40569;PMS5003;26270;34.428;-119.710;2022-08-20T11:02:24;11;10;
40569;PMS5003;26270;34.428;-119.710;2022-08-20T11:04:54;13;12;
40569;PMS5003;26270;34.428;-119.710;2022-08-20T11:07:23;12;10;
40569;PMS5003;26270;34.428;-119.710;2022-08-20T11:09:55;19;12;
40569;PMS5003;26270;34.428;-119.710;2022-08-20T11:12:24;12;10;
40569;PMS5003;26270;34.428;-119.710;2022-08-20T11:14:53;12;11;
40569;PMS5003;26270;34.428;-119.710;2022-08-20T11:17:22;12;12;
40569;PMS5003;26270;34.428;-119.710;2022-08-20T11:19:53;18;11;
40569;PMS5003;26270;34.428;-119.710;2022-08-20T11:22:22;14;13;
40569;PMS5003;26270;34.428;-119.710;2022-08-20T11:24:50;12;10;
40569;PMS5003;26270;34.428;-119.710;2022-08-20T11:27:20;13;10;
40569;PMS5003;26270;34.428;-119.710;2022-08-20T11:29:51;13;12;
40569;PMS5003;26270;34.428;-119.710;2022-08-20T11:32:21;12;10;
40569;PMS5003;26270;34.428;-119.710;2022-08-20T11:34:49;11;10;
40569;PMS5003;26270;34.428;-119.710;2022-08-20T11:37:17;16;11;
40569;PMS5003;26270;34.428;-119.710;2022-08-20T11:39:47;17;17;
40569;PMS5003;26270;34.428;-119.710;2022-08-20T11:42:16;20;20;
40569;PMS5003;26270;34.428;-119.710;2022-08-20T11:44:45;19;18;
40569;PMS5003;26270;34.428;-119.710;2022-08-20T11:47:19;19;19;
40569;PMS5003;26270;34.428;-119.710;2022-08-20T11:49:55;16;16;
40569;PMS5003;26270;34.428;-119.710;2022-08-20T11:52:25;23;17;
40569;PMS5003;26270;34.428;-119.710;2022-08-20T11:54:54;20;20;
40569;PMS5003;26270;34.428;-119.710;2022-08-20T11:57:23;17;14;
40569;PMS5003;26270;34.428;-119.710;2022-08-20T11:59:54;14;13;
40569;PMS5003;26270;34.428;-119.710;2022-08-20T12:02:25;14;13;
40569;PMS5003;26270;34.428;-119.710;2022-08-20T12:04:53;14;14;
40569;PMS5003;26270;34.428;-119.710;2022-08-20T12:07:22;25;24;
40569;PMS5003;26270;34.428;-119.710;2022-08-20T12:09:52;18;18;
40569;PMS5003;26270;34.428;-119.710;2022-08-20T12:12:20;15;13;
40569;PMS5003;26270;34.428;-119.710;2022-08-20T12:14:50;17;16;
40569;PMS5003;26270;34.428;-119.710;2022-08-20T12:17:20;22;18;
40569;PMS5003;26270;34.428;-119.710;2022-08-20T12:19:50;20;17;
40569;PMS5003;26270;34.428;-119.710;2022-08-20T12:22:22;19;17;
40569;PMS5003;26270;34.428;-119.710;2022-08-20T12:24:51;19;17;
40569;PMS5003;26270;34.428;-119.710;2022-08-20T12:27:21;17;16;
40569;PMS5003;26270;34.428;-119.710;2022-08-20T12:29:52;21;19;
40569;PMS5003;26270;34.428;-119.710;2022-08-20T12:32:23;17;17;
40569;PMS5003;26270;34.428;-119.710;2022-08-20T12:34:52;18;16;
40569;PMS5003;26270;34.428;-119.710;2022-08-20T12:37:22;16;16;
40569;PMS5003;26270;34.428;-119.710;2022-08-20T12:39:52;17;17;
40569;PMS5003;26270;34.428;-119.710;2022-08-20T12:42:22;24;24;
40569;PMS5003;26270;34.428;-119.710;2022-08-20T12:44:51;21;20;
40569;PMS5003;26270;34.428;-119.710;2022-08-20T12:47:20;17;17;
40569;PMS5003;26270;34.428;-119.710;2022-08-20T12:49:51;25;24;
40569;PMS5003;26270;34.428;-119.710;2022-08-20T12:52:23;23;22;
40569;PMS5003;26270;34.428;-119.710;2022-08-20T12:54:53;22;22;
40569;PMS5003;26270;34.428;-119.710;2022-08-20T12:57:24;22;21;
40569;PMS5003;26270;34.428;-119.710;2022-08-20T12:59:54;24;22;
40569;PMS5003;26270;34.428;-119.710;2022-08-20T13:02:23;22;21;
40569;PMS5003;26270;34.428;-119.710;2022-08-20T13:04:51;22;20;
40569;PMS5003;26270;34.428;-119.710;2022-08-20T13:07:20;15;15;
40569;PMS5003;26270;34.428;-119.710;2022-08-20T13:09:48;19;17;
40569;PMS5003;26270;34.428;-119.710;2022-08-20T13:12:16;18;18;
40569;PMS5003;26270;34.428;-119.710;2022-08-20T13:14:44;21;20;
40569;PMS5003;26270;34.428;-119.710;2022-08-20T13:17:14;18;17;
40569;PMS5003;26270;34.428;-119.710;2022-08-20T13:19:44;26;25;
40569;PMS5003;26270;34.428;-119.710;2022-08-20T13:22:12;28;26;
40569;PMS5003;26270;34.428;-119.710;2022-08-20T13:24:41;17;17;
40569;PMS5003;26270;34.428;-119.710;2022-08-20T13:27:10;24;24;
40569;PMS5003;26270;34.428;-119.710;2022-08-20T13:29:44;19;15;
40569;PMS5003;26270;34.428;-119.710;2022-08-20T13:32:13;30;24;
40569;PMS5003;26270;34.428;-119.710;2022-08-20T13:34:41;31;29;
40569;PMS5003;26270;34.428;-119.710;2022-08-20T13:37:11;22;19;
40569;PMS5003;26270;34.428;-119.710;2022-08-20T13:39:40;34;33;
40569;PMS5003;26270;34.428;-119.710;2022-08-20T13:42:09;20;16;
40569;PMS5003;26270;34.428;-119.710;2022-08-20T13:44:38;18;16;
40569;PMS5003;26270;34.428;-119.710;2022-08-20T13:47:14;32;31;
40569;PMS5003;26270;34.428;-119.710;2022-08-20T13:49:43;16;13;
40569;PMS5003;26270;34.428;-119.710;2022-08-20T13:52:12;23;19;
40569;PMS5003;26270;34.428;-119.710;2022-08-20T13:54:40;47;46;
40569;PMS5003;26270;34.428;-119.710;2022-08-20T13:57:10;55;54;
40569;PMS5003;26270;34.428;-119.710;2022-08-20T13:59:40;18;14;
40569;PMS5003;26270;34.428;-119.710;2022-08-20T14:02:10;35;35;
40569;PMS5003;26270;34.428;-119.710;2022-08-20T14:04:39;25;23;
40569;PMS5003;26270;34.428;-119.710;2022-08-20T14:07:08;19;18;
40569;PMS5003;26270;34.428;-119.710;2022-08-20T14:09:38;32;27;
40569;PMS5003;26270;34.428;-119.710;2022-08-20T14:12:08;36;34;
40569;PMS5003;26270;34.428;-119.710;2022-08-20T14:14:38;22;21;
40569;PMS5003;26270;34.428;-119.710;2022-08-20T14:17:15;19;17;
40569;PMS5003;26270;34.428;-119.710;2022-08-20T14:19:46;18;16;
40569;PMS5003;26270;34.428;-119.710;2022-08-20T14:22:15;18;16;
40569;PMS5003;26270;34.428;-119.710;2022-08-20T14:24:44;19;17;
40569;PMS5003;26270;34.428;-119.710;2022-08-20T14:27:14;15;14;
40569;PMS5003;26270;34.428;-119.710;2022-08-20T14:29:44;19;15;
40569;PMS5003;26270;34.428;-119.710;2022-08-20T14:32:15;13;13;
40569;PMS5003;26270;34.428;-119.710;2022-08-20T14:34:44;16;15;
40569;PMS5003;26270;34.428;-119.710;2022-08-20T14:37:13;15;15;
40569;PMS5003;26270;34.428;-119.710;2022-08-20T14:39:44;18;17;
40569;PMS5003;26270;34.428;-119.710;2022-08-20T14:42:14;14;13;
40569;PMS5003;26270;34.428;-119.710;2022-08-20T14:44:43;16;15;
40569;PMS5003;26270;34.428;-119.710;2022-08-20T14:47:12;23;16;
40569;PMS5003;26270;34.428;-119.710;2022-08-20T14:49:43;16;15;
40569;PMS5003;26270;34.428;-119.710;2022-08-20T14:52:13;22;20;
40569;PMS5003;26270;34.428;-119.710;2022-08-20T14:54:42;16;15;
40569;PMS5003;26270;34.428;-119.710;2022-08-20T14:57:12;19;18;
40569;PMS5003;26270;34.428;-119.710;2022-08-20T14:59:41;18;17;
40569;PMS5003;26270;34.428;-119.710;2022-08-20T15:02:10;21;19;
40569;PMS5003;26270;34.428;-119.710;2022-08-20T15:04:40;19;19;
40569;PMS5003;26270;34.428;-119.710;2022-08-20T15:07:13;18;17;
40569;PMS5003;26270;34.428;-119.710;2022-08-20T15:09:49;18;18;
40569;PMS5003;26270;34.428;-119.710;2022-08-20T15:12:18;18;16;
40569;PMS5003;26270;34.428;-119.710;2022-08-20T15:14:46;23;19;
40569;PMS5003;26270;34.428;-119.710;2022-08-20T15:17:18;17;16;
40569;PMS5003;26270;34.428;-119.710;2022-08-20T15:19:46;16;15;
40569;PMS5003;26270;34.428;-119.710;2022-08-20T15:22:15;19;16;
40569;PMS5003;26270;34.428;-119.710;2022-08-20T15:24:45;19;17;
40569;PMS5003;26270;34.428;-119.710;2022-08-20T15:27:14;18;16;
40569;PMS5003;26270;34.428;-119.710;2022-08-20T15:29:43;18;17;
40569;PMS5003;26270;34.428;-119.710;2022-08-20T15:32:11;20;20;
40569;PMS5003;26270;34.428;-119.710;2022-08-20T15:34:39;22;20;
40569;PMS5003;26270;34.428;-119.710;2022-08-20T15:37:09;19;18;
40569;PMS5003;26270;34.428;-119.710;2022-08-20T15:39:39;21;19;
40569;PMS5003;26270;34.428;-119.710;2022-08-20T15:42:08;20;19;
40569;PMS5003;26270;34.428;-119.710;2022-08-20T15:44:37;18;17;
40569;PMS5003;26270;34.428;-119.710;2022-08-20T15:47:18;23;18;
40569;PMS5003;26270;34.428;-119.710;2022-08-20T15:49:52;23;20;
40569;PMS5003;26270;34.428;-119.710;2022-08-20T15:52:25;19;19;
40569;PMS5003;26270;34.428;-119.710;2022-08-20T15:54:57;24;22;
40569;PMS5003;26270;34.428;-119.710;2022-08-20T15:57:31;25;23;